全部
One Arm Point Airport (Dampier Peninsula Western Australia) YOAP 天氣
There is no TAF data available at YOAP. Showing TAF data for YLBD (10 mi SW).
YLBD終端機場天氣預報(YOAP無資料)
| Date | Time (AWST) | Flight Rules | Wind Dir. | Speed | Type | Height AGL (ft) | Visibility | Remarks | ||||||
|---|---|---|---|---|---|---|---|---|---|---|---|---|---|---|
| 04-五月 | 19:00 | VFR | 150° | 10 kt | Clouds and Visibility are OK | >= 6 miles | ||||||||
| 04-五月 | 18:00 | VFR | 150° | 10 kt | Clouds and Visibility are OK | >= 6 miles | ||||||||
| 04-五月 | 17:00 | VFR | 150° | 10 kt | Clouds and Visibility are OK | >= 6 miles | ||||||||
| 04-五月 | 16:00 | VFR | 150° | 10 kt | Clouds and Visibility are OK | >= 6 miles | ||||||||
| 04-五月 | 15:00 | VFR | 150° | 10 kt | Clouds and Visibility are OK | >= 6 miles | ||||||||
| 04-五月 | 14:00 | VFR | 150° | 10 kt | Clouds and Visibility are OK | >= 6 miles | ||||||||
| 04-五月 | 13:00 | VFR | 140° | 14 kt | Clouds and Visibility are OK | >= 6 miles | ||||||||
There is no METAR data available at YOAP. Showing METAR data for YLBD (10 mi SW).
YLBD近期METAR歷史資料(YOAP無資料)
| Date | Time (AWST) | Flight Rules | Wind Dir. | Speed | Type | Height AGL (ft) | Visibility | Temp (°C) | Temp (°F) | Dew Point (°C) | Dew Point (°F) | Rel. Humid. | Pressure | Density Altitude | Remarks |
|---|---|---|---|---|---|---|---|---|---|---|---|---|---|---|---|
| 04-五月 | 13:00 | VFR | 130° | 12 kt | 10000 meters | 31° | 87° | 12° | 53° | 31% | 1012 mb | 2,094 ft | |||
| 04-五月 | 12:00 | VFR | 130° | 13 kt | 10000 meters | 30° | 86° | 13° | 55° | 35% | 1012 mb | 1,974 ft | |||
| 04-五月 | 11:00 | VFR | 130° | 13 kt | 10000 meters | 29° | 84° | 13° | 55° | 37% | 1013 mb | 1,824 ft | |||
| 04-五月 | 10:00 | VFR | 130° | 11 kt | 10000 meters | 29° | 84° | 13° | 55° | 37% | 1014 mb | 1,795 ft | |||
| 04-五月 | 09:00 | VFR | 140° | 12 kt | 10000 meters | 27° | 80° | 13° | 55° | 42% | 1014 mb | 1,555 ft | |||
| 04-五月 | 08:00 | VFR | 140° | 11 kt | 10000 meters | 26° | 78° | 12° | 53° | 42% | 1014 mb | 1,435 ft | |||
| 04-五月 | 07:00 | VFR | 140° | 8 kt | 10000 meters | 24° | 75° | 10° | 50° | 41% | 1013 mb | 1,224 ft | |||
| 04-五月 | 06:00 | VFR | 150° | 7 kt | 10000 meters | 24° | 75° | 10° | 50° | 41% | 1013 mb | 1,224 ft | |||
| 04-五月 | 05:00 | VFR | 150° | 8 kt | 10000 meters | 24° | 75° | 10° | 50° | 41% | 1012 mb | 1,254 ft | |||
| 04-五月 | 04:00 | VFR | 150° | 7 kt | 10000 meters | 25° | 77° | 11° | 51° | 41% | 1012 mb | 1,374 ft | |||
| 04-五月 | 03:00 | VFR | 150° | 8 kt | Broken |
9,100 |
10000 meters | 26° | 78° | 11° | 51° | 39% | 1012 mb | 1,494 ft | |
| 04-五月 | 02:00 | VFR | 150° | 7 kt | 10000 meters | 26° | 78° | 12° | 53° | 42% | 1012 mb | 1,494 ft | |||
| 04-五月 | 01:00 | VFR | 170° | 6 kt | 10000 meters | 26° | 78° | 16° | 60° | 54% | 1012 mb | 1,494 ft | |||
| 04-五月 | 00:00 | VFR | 210° | 4 kt | 10000 meters | 24° | 75° | 20° | 68° | 78% | 1012 mb | 1,254 ft | |||
| 03-五月 | 23:00 | VFR | 220° | 4 kt | 10000 meters | 25° | 77° | 21° | 69° | 79% | 1013 mb | 1,344 ft | |||
| 03-五月 | 22:00 | VFR | 230° | 4 kt | 10000 meters | 25° | 77° | 21° | 69° | 79% | 1013 mb | 1,344 ft | |||
| 03-五月 | 21:00 | VFR | 220° | 4 kt | 10000 meters | 26° | 78° | 22° | 71° | 79% | 1013 mb | 1,464 ft | |||
| 03-五月 | 20:00 | VFR | 220° | 5 kt | 10000 meters | 26° | 78° | 22° | 71° | 79% | 1012 mb | 1,494 ft | |||
| 03-五月 | 19:00 | VFR | 220° | 4 kt | 10000 meters | 26° | 78° | 20° | 68° | 70% | 1012 mb | 1,494 ft | |||
| 03-五月 | 18:00 | VFR | 130° | 3 kt | 10000 meters | 27° | 80° | 20° | 68° | 66% | 1011 mb | 1,643 ft | |||
| 03-五月 | 17:00 | VFR | 120° | 4 kt | 10000 meters | 31° | 87° | 19° | 66° | 49% | 1010 mb | 2,153 ft | |||
| 03-五月 | 16:00 | VFR | 120° | 5 kt | 10000 meters | 32° | 89° | 17° | 62° | 41% | 1010 mb | 2,273 ft | |||
| 03-五月 | 15:00 | VFR | 90° | 7 kt | 10000 meters | 32° | 89° | 15° | 59° | 36% | 1010 mb | 2,273 ft | |||
| 03-五月 | 14:00 | VFR | 130° | 6 kt | 10000 meters | 32° | 89° | 17° | 62° | 41% | 1011 mb | 2,243 ft |
登入
| 您的瀏覽器不支援. 升級您的瀏覽器 |
